sensor_id;sensor_type;location;lat;lon;timestamp;P1;P2;P0
74333;PMS5003;62753;40.394;-80.022;2024-03-06T00:01:37;10;10;
74333;PMS5003;62753;40.394;-80.022;2024-03-06T00:04:04;9;9;
74333;PMS5003;62753;40.394;-80.022;2024-03-06T00:06:27;7;7;
74333;PMS5003;62753;40.394;-80.022;2024-03-06T00:08:54;12;10;
74333;PMS5003;62753;40.394;-80.022;2024-03-06T00:11:20;9;8;
74333;PMS5003;62753;40.394;-80.022;2024-03-06T00:13:43;10;9;
74333;PMS5003;62753;40.394;-80.022;2024-03-06T00:16:09;8;8;
74333;PMS5003;62753;40.394;-80.022;2024-03-06T00:18:36;11;8;
74333;PMS5003;62753;40.394;-80.022;2024-03-06T00:21:01;11;9;
74333;PMS5003;62753;40.394;-80.022;2024-03-06T00:23:26;10;7;
74333;PMS5003;62753;40.394;-80.022;2024-03-06T00:25:50;9;8;
74333;PMS5003;62753;40.394;-80.022;2024-03-06T00:28:16;9;9;
74333;PMS5003;62753;40.394;-80.022;2024-03-06T00:30:41;9;9;
74333;PMS5003;62753;40.394;-80.022;2024-03-06T00:33:08;8;7;
74333;PMS5003;62753;40.394;-80.022;2024-03-06T00:35:32;8;7;
74333;PMS5003;62753;40.394;-80.022;2024-03-06T00:37:57;8;8;
74333;PMS5003;62753;40.394;-80.022;2024-03-06T00:40:24;8;7;
74333;PMS5003;62753;40.394;-80.022;2024-03-06T00:42:48;11;10;
74333;PMS5003;62753;40.394;-80.022;2024-03-06T00:45:13;10;9;
74333;PMS5003;62753;40.394;-80.022;2024-03-06T00:47:38;10;9;
74333;PMS5003;62753;40.394;-80.022;2024-03-06T00:50:04;12;11;
74333;PMS5003;62753;40.394;-80.022;2024-03-06T00:52:29;10;9;
74333;PMS5003;62753;40.394;-80.022;2024-03-06T00:54:54;12;11;
74333;PMS5003;62753;40.394;-80.022;2024-03-06T00:57:20;12;12;
74333;PMS5003;62753;40.394;-80.022;2024-03-06T00:59:47;10;9;
74333;PMS5003;62753;40.394;-80.022;2024-03-06T01:02:11;14;13;
74333;PMS5003;62753;40.394;-80.022;2024-03-06T01:04:40;14;12;
74333;PMS5003;62753;40.394;-80.022;2024-03-06T01:07:02;9;8;
74333;PMS5003;62753;40.394;-80.022;2024-03-06T01:09:29;14;11;
74333;PMS5003;62753;40.394;-80.022;2024-03-06T01:11:53;15;13;
74333;PMS5003;62753;40.394;-80.022;2024-03-06T01:14:19;9;8;
74333;PMS5003;62753;40.394;-80.022;2024-03-06T01:16:44;10;9;
74333;PMS5003;62753;40.394;-80.022;2024-03-06T01:19:09;12;10;
74333;PMS5003;62753;40.394;-80.022;2024-03-06T01:21:35;10;10;
74333;PMS5003;62753;40.394;-80.022;2024-03-06T01:24:01;11;11;
74333;PMS5003;62753;40.394;-80.022;2024-03-06T01:26:25;14;13;
74333;PMS5003;62753;40.394;-80.022;2024-03-06T01:28:50;12;11;
74333;PMS5003;62753;40.394;-80.022;2024-03-06T01:31:16;13;11;
74333;PMS5003;62753;40.394;-80.022;2024-03-06T01:33:40;13;12;
74333;PMS5003;62753;40.394;-80.022;2024-03-06T01:36:07;14;12;
74333;PMS5003;62753;40.394;-80.022;2024-03-06T01:38:35;14;13;
74333;PMS5003;62753;40.394;-80.022;2024-03-06T01:40:58;13;12;
74333;PMS5003;62753;40.394;-80.022;2024-03-06T01:43:24;14;11;
74333;PMS5003;62753;40.394;-80.022;2024-03-06T01:45:48;15;15;
74333;PMS5003;62753;40.394;-80.022;2024-03-06T01:48:13;14;12;
74333;PMS5003;62753;40.394;-80.022;2024-03-06T01:50:39;14;14;
74333;PMS5003;62753;40.394;-80.022;2024-03-06T01:53:05;11;11;
74333;PMS5003;62753;40.394;-80.022;2024-03-06T01:55:29;12;12;
74333;PMS5003;62753;40.394;-80.022;2024-03-06T01:57:58;15;13;
74333;PMS5003;62753;40.394;-80.022;2024-03-06T02:00:20;13;12;
74333;PMS5003;62753;40.394;-80.022;2024-03-06T02:02:49;14;13;
74333;PMS5003;62753;40.394;-80.022;2024-03-06T02:05:12;15;15;
74333;PMS5003;62753;40.394;-80.022;2024-03-06T02:07:36;12;11;
74333;PMS5003;62753;40.394;-80.022;2024-03-06T02:10:01;12;11;
74333;PMS5003;62753;40.394;-80.022;2024-03-06T02:12:30;13;13;
74333;PMS5003;62753;40.394;-80.022;2024-03-06T02:14:52;13;12;
74333;PMS5003;62753;40.394;-80.022;2024-03-06T02:17:20;13;12;
74333;PMS5003;62753;40.394;-80.022;2024-03-06T02:19:44;18;17;
74333;PMS5003;62753;40.394;-80.022;2024-03-06T02:22:10;18;17;
74333;PMS5003;62753;40.394;-80.022;2024-03-06T02:24:37;15;14;
74333;PMS5003;62753;40.394;-80.022;2024-03-06T02:27:00;13;13;
74333;PMS5003;62753;40.394;-80.022;2024-03-06T02:29:25;16;13;
74333;PMS5003;62753;40.394;-80.022;2024-03-06T02:31:51;17;13;
74333;PMS5003;62753;40.394;-80.022;2024-03-06T02:34:18;14;13;
74333;PMS5003;62753;40.394;-80.022;2024-03-06T02:36:43;12;11;
74333;PMS5003;62753;40.394;-80.022;2024-03-06T02:39:08;9;9;
74333;PMS5003;62753;40.394;-80.022;2024-03-06T02:41:34;9;9;
74333;PMS5003;62753;40.394;-80.022;2024-03-06T02:43:58;8;8;
74333;PMS5003;62753;40.394;-80.022;2024-03-06T02:46:24;9;9;
74333;PMS5003;62753;40.394;-80.022;2024-03-06T02:48:48;8;8;
74333;PMS5003;62753;40.394;-80.022;2024-03-06T02:51:17;8;8;
74333;PMS5003;62753;40.394;-80.022;2024-03-06T02:53:40;10;9;
74333;PMS5003;62753;40.394;-80.022;2024-03-06T02:56:05;11;9;
74333;PMS5003;62753;40.394;-80.022;2024-03-06T02:58:29;10;9;
74333;PMS5003;62753;40.394;-80.022;2024-03-06T03:00:55;10;8;
74333;PMS5003;62753;40.394;-80.022;2024-03-06T03:03:20;8;7;
74333;PMS5003;62753;40.394;-80.022;2024-03-06T03:05:45;7;7;
74333;PMS5003;62753;40.394;-80.022;2024-03-06T03:08:10;10;10;
74333;PMS5003;62753;40.394;-80.022;2024-03-06T03:10:37;11;10;
74333;PMS5003;62753;40.394;-80.022;2024-03-06T03:13:01;9;9;
74333;PMS5003;62753;40.394;-80.022;2024-03-06T03:15:28;12;10;
74333;PMS5003;62753;40.394;-80.022;2024-03-06T03:17:52;10;9;
74333;PMS5003;62753;40.394;-80.022;2024-03-06T03:20:17;9;8;
74333;PMS5003;62753;40.394;-80.022;2024-03-06T03:22:44;8;7;
74333;PMS5003;62753;40.394;-80.022;2024-03-06T03:25:08;10;9;
74333;PMS5003;62753;40.394;-80.022;2024-03-06T03:27:34;10;9;
74333;PMS5003;62753;40.394;-80.022;2024-03-06T03:30:00;10;8;
74333;PMS5003;62753;40.394;-80.022;2024-03-06T03:32:25;9;8;
74333;PMS5003;62753;40.394;-80.022;2024-03-06T03:34:49;9;8;
74333;PMS5003;62753;40.394;-80.022;2024-03-06T03:37:14;4;4;
74333;PMS5003;62753;40.394;-80.022;2024-03-06T03:39:43;9;8;
74333;PMS5003;62753;40.394;-80.022;2024-03-06T03:42:05;7;7;
74333;PMS5003;62753;40.394;-80.022;2024-03-06T03:44:32;9;8;
74333;PMS5003;62753;40.394;-80.022;2024-03-06T03:46:56;8;7;
74333;PMS5003;62753;40.394;-80.022;2024-03-06T03:49:22;9;7;
74333;PMS5003;62753;40.394;-80.022;2024-03-06T03:51:46;9;9;
74333;PMS5003;62753;40.394;-80.022;2024-03-06T03:54:12;8;7;
74333;PMS5003;62753;40.394;-80.022;2024-03-06T03:56:37;10;8;
74333;PMS5003;62753;40.394;-80.022;2024-03-06T03:59:04;10;9;
74333;PMS5003;62753;40.394;-80.022;2024-03-06T04:01:28;10;9;
74333;PMS5003;62753;40.394;-80.022;2024-03-06T04:03:54;11;9;
74333;PMS5003;62753;40.394;-80.022;2024-03-06T04:06:18;9;9;
74333;PMS5003;62753;40.394;-80.022;2024-03-06T04:08:44;10;9;
74333;PMS5003;62753;40.394;-80.022;2024-03-06T04:11:09;10;9;
74333;PMS5003;62753;40.394;-80.022;2024-03-06T04:13:37;9;8;
74333;PMS5003;62753;40.394;-80.022;2024-03-06T04:16:00;10;10;
74333;PMS5003;62753;40.394;-80.022;2024-03-06T04:18:25;8;7;
74333;PMS5003;62753;40.394;-80.022;2024-03-06T04:20:51;7;7;
74333;PMS5003;62753;40.394;-80.022;2024-03-06T04:23:16;11;8;
74333;PMS5003;62753;40.394;-80.022;2024-03-06T04:25:42;7;7;
74333;PMS5003;62753;40.394;-80.022;2024-03-06T04:28:07;8;7;
74333;PMS5003;62753;40.394;-80.022;2024-03-06T04:30:32;9;9;
74333;PMS5003;62753;40.394;-80.022;2024-03-06T04:32:59;10;9;
74333;PMS5003;62753;40.394;-80.022;2024-03-06T04:35:23;9;9;
74333;PMS5003;62753;40.394;-80.022;2024-03-06T04:37:52;10;10;
74333;PMS5003;62753;40.394;-80.022;2024-03-06T04:40:16;10;8;
74333;PMS5003;62753;40.394;-80.022;2024-03-06T04:42:39;9;8;
74333;PMS5003;62753;40.394;-80.022;2024-03-06T04:45:08;9;9;
74333;PMS5003;62753;40.394;-80.022;2024-03-06T04:47:30;11;10;
74333;PMS5003;62753;40.394;-80.022;2024-03-06T04:49:56;11;10;
74333;PMS5003;62753;40.394;-80.022;2024-03-06T04:52:21;9;9;
74333;PMS5003;62753;40.394;-80.022;2024-03-06T04:54:48;8;8;
74333;PMS5003;62753;40.394;-80.022;2024-03-06T04:57:13;10;9;
74333;PMS5003;62753;40.394;-80.022;2024-03-06T04:59:38;10;8;
74333;PMS5003;62753;40.394;-80.022;2024-03-06T05:02:02;10;10;
74333;PMS5003;62753;40.394;-80.022;2024-03-06T05:04:27;10;9;
74333;PMS5003;62753;40.394;-80.022;2024-03-06T05:06:53;10;10;
74333;PMS5003;62753;40.394;-80.022;2024-03-06T05:09:18;10;10;
74333;PMS5003;62753;40.394;-80.022;2024-03-06T05:11:43;12;12;
74333;PMS5003;62753;40.394;-80.022;2024-03-06T05:14:08;11;9;
74333;PMS5003;62753;40.394;-80.022;2024-03-06T05:16:35;12;11;
74333;PMS5003;62753;40.394;-80.022;2024-03-06T05:18:58;9;8;
74333;PMS5003;62753;40.394;-80.022;2024-03-06T05:21:24;10;10;
74333;PMS5003;62753;40.394;-80.022;2024-03-06T05:23:50;15;13;
74333;PMS5003;62753;40.394;-80.022;2024-03-06T05:26:14;11;11;
74333;PMS5003;62753;40.394;-80.022;2024-03-06T05:28:41;10;10;
74333;PMS5003;62753;40.394;-80.022;2024-03-06T05:31:13;13;10;
74333;PMS5003;62753;40.394;-80.022;2024-03-06T05:33:31;9;9;
74333;PMS5003;62753;40.394;-80.022;2024-03-06T05:35:55;9;9;
74333;PMS5003;62753;40.394;-80.022;2024-03-06T05:38:20;11;10;
74333;PMS5003;62753;40.394;-80.022;2024-03-06T05:40:45;14;14;
74333;PMS5003;62753;40.394;-80.022;2024-03-06T05:43:11;9;8;
74333;PMS5003;62753;40.394;-80.022;2024-03-06T05:45:36;10;10;
74333;PMS5003;62753;40.394;-80.022;2024-03-06T05:48:02;11;10;
74333;PMS5003;62753;40.394;-80.022;2024-03-06T05:50:27;12;11;
74333;PMS5003;62753;40.394;-80.022;2024-03-06T05:52:53;11;11;
74333;PMS5003;62753;40.394;-80.022;2024-03-06T05:55:18;14;13;
74333;PMS5003;62753;40.394;-80.022;2024-03-06T05:57:43;13;12;
74333;PMS5003;62753;40.394;-80.022;2024-03-06T06:00:11;10;10;
74333;PMS5003;62753;40.394;-80.022;2024-03-06T06:02:35;13;13;
74333;PMS5003;62753;40.394;-80.022;2024-03-06T06:05:00;13;11;
74333;PMS5003;62753;40.394;-80.022;2024-03-06T06:07:25;15;14;
74333;PMS5003;62753;40.394;-80.022;2024-03-06T06:09:52;13;11;
74333;PMS5003;62753;40.394;-80.022;2024-03-06T06:12:16;16;14;
74333;PMS5003;62753;40.394;-80.022;2024-03-06T06:14:43;18;16;
74333;PMS5003;62753;40.394;-80.022;2024-03-06T06:17:07;15;14;
74333;PMS5003;62753;40.394;-80.022;2024-03-06T06:19:32;15;13;
74333;PMS5003;62753;40.394;-80.022;2024-03-06T06:21:58;15;13;
74333;PMS5003;62753;40.394;-80.022;2024-03-06T06:24:23;17;16;
74333;PMS5003;62753;40.394;-80.022;2024-03-06T06:26:50;14;14;
74333;PMS5003;62753;40.394;-80.022;2024-03-06T06:29:15;14;13;
74333;PMS5003;62753;40.394;-80.022;2024-03-06T06:31:42;13;13;
74333;PMS5003;62753;40.394;-80.022;2024-03-06T06:34:05;20;17;
74333;PMS5003;62753;40.394;-80.022;2024-03-06T06:36:32;14;14;
74333;PMS5003;62753;40.394;-80.022;2024-03-06T06:38:56;14;13;
74333;PMS5003;62753;40.394;-80.022;2024-03-06T06:41:22;13;13;
74333;PMS5003;62753;40.394;-80.022;2024-03-06T06:43:48;20;14;
74333;PMS5003;62753;40.394;-80.022;2024-03-06T06:46:13;18;14;
74333;PMS5003;62753;40.394;-80.022;2024-03-06T06:48:38;17;16;
74333;PMS5003;62753;40.394;-80.022;2024-03-06T06:51:04;19;17;
74333;PMS5003;62753;40.394;-80.022;2024-03-06T06:53:29;21;17;
74333;PMS5003;62753;40.394;-80.022;2024-03-06T06:55:56;22;17;
74333;PMS5003;62753;40.394;-80.022;2024-03-06T06:58:20;23;18;
74333;PMS5003;62753;40.394;-80.022;2024-03-06T07:00:47;21;19;
74333;PMS5003;62753;40.394;-80.022;2024-03-06T07:03:11;21;19;
74333;PMS5003;62753;40.394;-80.022;2024-03-06T07:05:38;20;18;
74333;PMS5003;62753;40.394;-80.022;2024-03-06T07:08:02;19;18;
74333;PMS5003;62753;40.394;-80.022;2024-03-06T07:10:29;21;17;
74333;PMS5003;62753;40.394;-80.022;2024-03-06T07:12:54;19;18;
74333;PMS5003;62753;40.394;-80.022;2024-03-06T07:15:20;16;16;
74333;PMS5003;62753;40.394;-80.022;2024-03-06T07:17:46;21;17;
74333;PMS5003;62753;40.394;-80.022;2024-03-06T07:20:10;16;16;
74333;PMS5003;62753;40.394;-80.022;2024-03-06T07:22:36;20;19;
74333;PMS5003;62753;40.394;-80.022;2024-03-06T07:25:03;15;14;
74333;PMS5003;62753;40.394;-80.022;2024-03-06T07:27:28;20;17;
74333;PMS5003;62753;40.394;-80.022;2024-03-06T07:29:54;16;16;
74333;PMS5003;62753;40.394;-80.022;2024-03-06T07:32:18;16;14;
74333;PMS5003;62753;40.394;-80.022;2024-03-06T07:34:45;16;15;
74333;PMS5003;62753;40.394;-80.022;2024-03-06T07:37:09;18;14;
74333;PMS5003;62753;40.394;-80.022;2024-03-06T07:39:35;14;14;
74333;PMS5003;62753;40.394;-80.022;2024-03-06T07:42:01;20;17;
74333;PMS5003;62753;40.394;-80.022;2024-03-06T07:44:26;16;14;
74333;PMS5003;62753;40.394;-80.022;2024-03-06T07:46:55;16;14;
74333;PMS5003;62753;40.394;-80.022;2024-03-06T07:49:17;13;13;
74333;PMS5003;62753;40.394;-80.022;2024-03-06T07:51:42;15;15;
74333;PMS5003;62753;40.394;-80.022;2024-03-06T07:54:08;14;12;
74333;PMS5003;62753;40.394;-80.022;2024-03-06T07:56:33;15;13;
74333;PMS5003;62753;40.394;-80.022;2024-03-06T07:58:59;13;13;
74333;PMS5003;62753;40.394;-80.022;2024-03-06T08:01:23;12;12;
74333;PMS5003;62753;40.394;-80.022;2024-03-06T08:03:49;15;15;
74333;PMS5003;62753;40.394;-80.022;2024-03-06T08:06:14;12;12;
74333;PMS5003;62753;40.394;-80.022;2024-03-06T08:08:40;13;12;
74333;PMS5003;62753;40.394;-80.022;2024-03-06T08:11:04;11;11;
74333;PMS5003;62753;40.394;-80.022;2024-03-06T08:13:29;14;13;
74333;PMS5003;62753;40.394;-80.022;2024-03-06T08:15:57;11;10;
74333;PMS5003;62753;40.394;-80.022;2024-03-06T08:18:20;13;12;
74333;PMS5003;62753;40.394;-80.022;2024-03-06T08:20:47;16;15;
74333;PMS5003;62753;40.394;-80.022;2024-03-06T08:23:11;14;13;
74333;PMS5003;62753;40.394;-80.022;2024-03-06T08:25:36;13;12;
74333;PMS5003;62753;40.394;-80.022;2024-03-06T08:28:01;13;13;
74333;PMS5003;62753;40.394;-80.022;2024-03-06T08:30:30;14;13;
74333;PMS5003;62753;40.394;-80.022;2024-03-06T08:32:54;12;12;
74333;PMS5003;62753;40.394;-80.022;2024-03-06T08:35:18;8;8;
74333;PMS5003;62753;40.394;-80.022;2024-03-06T08:37:43;11;10;
74333;PMS5003;62753;40.394;-80.022;2024-03-06T08:40:10;13;9;
74333;PMS5003;62753;40.394;-80.022;2024-03-06T08:42:34;13;11;
74333;PMS5003;62753;40.394;-80.022;2024-03-06T08:44:59;11;11;
74333;PMS5003;62753;40.394;-80.022;2024-03-06T08:47:24;12;12;
74333;PMS5003;62753;40.394;-80.022;2024-03-06T08:49:49;14;12;
74333;PMS5003;62753;40.394;-80.022;2024-03-06T08:52:14;12;11;
74333;PMS5003;62753;40.394;-80.022;2024-03-06T08:54:40;13;13;
74333;PMS5003;62753;40.394;-80.022;2024-03-06T08:57:05;12;11;
74333;PMS5003;62753;40.394;-80.022;2024-03-06T08:59:31;13;12;
74333;PMS5003;62753;40.394;-80.022;2024-03-06T09:01:55;10;10;
74333;PMS5003;62753;40.394;-80.022;2024-03-06T09:04:20;11;11;
74333;PMS5003;62753;40.394;-80.022;2024-03-06T09:06:47;14;11;
74333;PMS5003;62753;40.394;-80.022;2024-03-06T09:09:12;9;9;
74333;PMS5003;62753;40.394;-80.022;2024-03-06T09:11:37;12;12;
74333;PMS5003;62753;40.394;-80.022;2024-03-06T09:14:03;11;11;
74333;PMS5003;62753;40.394;-80.022;2024-03-06T09:16:28;12;12;
74333;PMS5003;62753;40.394;-80.022;2024-03-06T09:18:53;13;12;
74333;PMS5003;62753;40.394;-80.022;2024-03-06T09:21:18;11;10;
74333;PMS5003;62753;40.394;-80.022;2024-03-06T09:23:44;11;10;
74333;PMS5003;62753;40.394;-80.022;2024-03-06T09:26:09;12;12;
74333;PMS5003;62753;40.394;-80.022;2024-03-06T09:28:35;13;12;
74333;PMS5003;62753;40.394;-80.022;2024-03-06T09:31:00;16;16;
74333;PMS5003;62753;40.394;-80.022;2024-03-06T09:33:26;14;13;
74333;PMS5003;62753;40.394;-80.022;2024-03-06T09:35:51;15;14;
74333;PMS5003;62753;40.394;-80.022;2024-03-06T09:38:17;14;13;
74333;PMS5003;62753;40.394;-80.022;2024-03-06T09:40:43;14;13;
74333;PMS5003;62753;40.394;-80.022;2024-03-06T09:43:08;13;13;
74333;PMS5003;62753;40.394;-80.022;2024-03-06T09:45:35;17;14;
74333;PMS5003;62753;40.394;-80.022;2024-03-06T09:47:58;16;14;
74333;PMS5003;62753;40.394;-80.022;2024-03-06T09:50:24;14;13;
74333;PMS5003;62753;40.394;-80.022;2024-03-06T09:52:51;17;16;
74333;PMS5003;62753;40.394;-80.022;2024-03-06T09:55:16;12;12;
74333;PMS5003;62753;40.394;-80.022;2024-03-06T09:57:42;21;14;
74333;PMS5003;62753;40.394;-80.022;2024-03-06T10:00:07;14;14;
74333;PMS5003;62753;40.394;-80.022;2024-03-06T10:02:34;19;13;
74333;PMS5003;62753;40.394;-80.022;2024-03-06T10:04:57;13;13;
74333;PMS5003;62753;40.394;-80.022;2024-03-06T10:07:23;15;13;
74333;PMS5003;62753;40.394;-80.022;2024-03-06T10:09:48;15;15;
74333;PMS5003;62753;40.394;-80.022;2024-03-06T10:12:16;15;12;
74333;PMS5003;62753;40.394;-80.022;2024-03-06T10:14:47;13;13;
74333;PMS5003;62753;40.394;-80.022;2024-03-06T10:17:05;14;14;
74333;PMS5003;62753;40.394;-80.022;2024-03-06T10:19:30;12;12;
74333;PMS5003;62753;40.394;-80.022;2024-03-06T10:21:55;16;15;
74333;PMS5003;62753;40.394;-80.022;2024-03-06T10:24:22;14;14;
74333;PMS5003;62753;40.394;-80.022;2024-03-06T10:26:47;13;12;
74333;PMS5003;62753;40.394;-80.022;2024-03-06T10:29:14;14;13;
74333;PMS5003;62753;40.394;-80.022;2024-03-06T10:31:37;16;12;
74333;PMS5003;62753;40.394;-80.022;2024-03-06T10:34:03;13;12;
74333;PMS5003;62753;40.394;-80.022;2024-03-06T10:36:31;16;14;
74333;PMS5003;62753;40.394;-80.022;2024-03-06T10:38:54;14;14;
74333;PMS5003;62753;40.394;-80.022;2024-03-06T10:41:19;17;16;
74333;PMS5003;62753;40.394;-80.022;2024-03-06T10:43:44;17;15;
74333;PMS5003;62753;40.394;-80.022;2024-03-06T10:46:11;14;14;
74333;PMS5003;62753;40.394;-80.022;2024-03-06T10:48:37;14;14;
74333;PMS5003;62753;40.394;-80.022;2024-03-06T10:51:00;15;12;
74333;PMS5003;62753;40.394;-80.022;2024-03-06T10:53:27;15;13;
74333;PMS5003;62753;40.394;-80.022;2024-03-06T10:55:51;14;13;
74333;PMS5003;62753;40.394;-80.022;2024-03-06T10:58:16;17;16;
74333;PMS5003;62753;40.394;-80.022;2024-03-06T11:00:42;15;13;
74333;PMS5003;62753;40.394;-80.022;2024-03-06T11:03:07;13;11;
74333;PMS5003;62753;40.394;-80.022;2024-03-06T11:05:32;15;14;
74333;PMS5003;62753;40.394;-80.022;2024-03-06T11:07:57;15;15;
74333;PMS5003;62753;40.394;-80.022;2024-03-06T11:10:31;17;14;
74333;PMS5003;62753;40.394;-80.022;2024-03-06T11:12:48;14;14;
74333;PMS5003;62753;40.394;-80.022;2024-03-06T11:15:14;15;14;
74333;PMS5003;62753;40.394;-80.022;2024-03-06T11:17:39;14;13;
74333;PMS5003;62753;40.394;-80.022;2024-03-06T11:20:08;24;20;
74333;PMS5003;62753;40.394;-80.022;2024-03-06T11:24:55;22;17;
74333;PMS5003;62753;40.394;-80.022;2024-03-06T11:27:22;18;16;
74333;PMS5003;62753;40.394;-80.022;2024-03-06T11:32:11;21;17;
74333;PMS5003;62753;40.394;-80.022;2024-03-06T11:34:37;13;13;
74333;PMS5003;62753;40.394;-80.022;2024-03-06T11:37:04;19;16;
74333;PMS5003;62753;40.394;-80.022;2024-03-06T11:39:28;16;16;
74333;PMS5003;62753;40.394;-80.022;2024-03-06T11:41:54;17;16;
74333;PMS5003;62753;40.394;-80.022;2024-03-06T11:44:20;17;17;
74333;PMS5003;62753;40.394;-80.022;2024-03-06T11:46:46;18;16;
74333;PMS5003;62753;40.394;-80.022;2024-03-06T11:49:15;20;19;
74333;PMS5003;62753;40.394;-80.022;2024-03-06T11:51:37;21;20;
74333;PMS5003;62753;40.394;-80.022;2024-03-06T11:54:01;22;18;
74333;PMS5003;62753;40.394;-80.022;2024-03-06T11:56:27;23;18;
74333;PMS5003;62753;40.394;-80.022;2024-03-06T11:58:52;22;21;
74333;PMS5003;62753;40.394;-80.022;2024-03-06T12:01:17;19;18;
74333;PMS5003;62753;40.394;-80.022;2024-03-06T12:03:42;20;16;
74333;PMS5003;62753;40.394;-80.022;2024-03-06T12:06:09;24;20;
74333;PMS5003;62753;40.394;-80.022;2024-03-06T12:08:33;22;20;
74333;PMS5003;62753;40.394;-80.022;2024-03-06T12:10:59;20;20;
74333;PMS5003;62753;40.394;-80.022;2024-03-06T12:13:26;25;21;
74333;PMS5003;62753;40.394;-80.022;2024-03-06T12:15:50;20;19;
74333;PMS5003;62753;40.394;-80.022;2024-03-06T12:18:16;20;18;
74333;PMS5003;62753;40.394;-80.022;2024-03-06T12:20:42;28;20;
74333;PMS5003;62753;40.394;-80.022;2024-03-06T12:23:07;18;16;
74333;PMS5003;62753;40.394;-80.022;2024-03-06T12:25:33;24;22;
74333;PMS5003;62753;40.394;-80.022;2024-03-06T12:28:06;22;21;
74333;PMS5003;62753;40.394;-80.022;2024-03-06T12:30:24;21;19;
74333;PMS5003;62753;40.394;-80.022;2024-03-06T12:32:57;23;21;
74333;PMS5003;62753;40.394;-80.022;2024-03-06T12:37:40;20;20;
74333;PMS5003;62753;40.394;-80.022;2024-03-06T12:40:08;28;23;
74333;PMS5003;62753;40.394;-80.022;2024-03-06T12:42:32;25;20;
74333;PMS5003;62753;40.394;-80.022;2024-03-06T12:44:59;22;21;
74333;PMS5003;62753;40.394;-80.022;2024-03-06T12:47:24;24;22;
74333;PMS5003;62753;40.394;-80.022;2024-03-06T12:49:48;33;26;
74333;PMS5003;62753;40.394;-80.022;2024-03-06T12:52:15;22;19;
74333;PMS5003;62753;40.394;-80.022;2024-03-06T12:54:40;28;23;
74333;PMS5003;62753;40.394;-80.022;2024-03-06T12:57:05;27;24;
74333;PMS5003;62753;40.394;-80.022;2024-03-06T12:59:31;28;21;
74333;PMS5003;62753;40.394;-80.022;2024-03-06T13:01:56;24;23;
74333;PMS5003;62753;40.394;-80.022;2024-03-06T13:04:24;20;19;
74333;PMS5003;62753;40.394;-80.022;2024-03-06T13:06:47;29;23;
74333;PMS5003;62753;40.394;-80.022;2024-03-06T13:09:13;21;19;
74333;PMS5003;62753;40.394;-80.022;2024-03-06T13:11:39;19;18;
74333;PMS5003;62753;40.394;-80.022;2024-03-06T13:14:03;22;20;
74333;PMS5003;62753;40.394;-80.022;2024-03-06T13:16:28;24;21;
74333;PMS5003;62753;40.394;-80.022;2024-03-06T13:18:54;20;20;
74333;PMS5003;62753;40.394;-80.022;2024-03-06T13:21:19;23;22;
74333;PMS5003;62753;40.394;-80.022;2024-03-06T13:23:45;24;22;
74333;PMS5003;62753;40.394;-80.022;2024-03-06T13:26:10;24;22;
74333;PMS5003;62753;40.394;-80.022;2024-03-06T13:28:36;24;22;
74333;PMS5003;62753;40.394;-80.022;2024-03-06T13:31:02;23;18;
74333;PMS5003;62753;40.394;-80.022;2024-03-06T13:33:27;24;21;
74333;PMS5003;62753;40.394;-80.022;2024-03-06T13:35:55;21;19;
74333;PMS5003;62753;40.394;-80.022;2024-03-06T13:38:18;26;21;
74333;PMS5003;62753;40.394;-80.022;2024-03-06T13:40:45;22;20;
74333;PMS5003;62753;40.394;-80.022;2024-03-06T13:43:09;23;20;
74333;PMS5003;62753;40.394;-80.022;2024-03-06T13:45:34;24;21;
74333;PMS5003;62753;40.394;-80.022;2024-03-06T13:48:00;23;21;
74333;PMS5003;62753;40.394;-80.022;2024-03-06T13:50:25;27;22;
74333;PMS5003;62753;40.394;-80.022;2024-03-06T13:52:51;24;21;
74333;PMS5003;62753;40.394;-80.022;2024-03-06T13:55:17;27;21;
74333;PMS5003;62753;40.394;-80.022;2024-03-06T13:57:42;29;24;
74333;PMS5003;62753;40.394;-80.022;2024-03-06T14:00:08;21;21;
74333;PMS5003;62753;40.394;-80.022;2024-03-06T14:02:33;34;24;
74333;PMS5003;62753;40.394;-80.022;2024-03-06T14:05:00;25;20;
74333;PMS5003;62753;40.394;-80.022;2024-03-06T14:07:24;23;21;
74333;PMS5003;62753;40.394;-80.022;2024-03-06T14:09:52;21;17;
74333;PMS5003;62753;40.394;-80.022;2024-03-06T14:12:18;27;24;
74333;PMS5003;62753;40.394;-80.022;2024-03-06T14:14:41;26;23;
74333;PMS5003;62753;40.394;-80.022;2024-03-06T14:17:06;30;22;
74333;PMS5003;62753;40.394;-80.022;2024-03-06T14:19:31;23;20;
74333;PMS5003;62753;40.394;-80.022;2024-03-06T14:21:56;23;21;
74333;PMS5003;62753;40.394;-80.022;2024-03-06T14:24:21;25;21;
74333;PMS5003;62753;40.394;-80.022;2024-03-06T14:26:46;28;23;
74333;PMS5003;62753;40.394;-80.022;2024-03-06T14:29:12;28;22;
74333;PMS5003;62753;40.394;-80.022;2024-03-06T14:31:38;29;24;
74333;PMS5003;62753;40.394;-80.022;2024-03-06T14:34:04;28;25;
74333;PMS5003;62753;40.394;-80.022;2024-03-06T14:36:28;30;26;
74333;PMS5003;62753;40.394;-80.022;2024-03-06T14:38:54;23;20;
74333;PMS5003;62753;40.394;-80.022;2024-03-06T14:41:19;22;21;
74333;PMS5003;62753;40.394;-80.022;2024-03-06T14:43:44;29;26;
74333;PMS5003;62753;40.394;-80.022;2024-03-06T14:46:13;25;21;
74333;PMS5003;62753;40.394;-80.022;2024-03-06T14:48:35;25;22;
74333;PMS5003;62753;40.394;-80.022;2024-03-06T14:51:01;29;26;
74333;PMS5003;62753;40.394;-80.022;2024-03-06T14:53:29;28;26;
74333;PMS5003;62753;40.394;-80.022;2024-03-06T14:55:52;25;22;
74333;PMS5003;62753;40.394;-80.022;2024-03-06T14:58:16;22;21;
74333;PMS5003;62753;40.394;-80.022;2024-03-06T15:00:42;22;21;
74333;PMS5003;62753;40.394;-80.022;2024-03-06T15:03:08;19;19;
74333;PMS5003;62753;40.394;-80.022;2024-03-06T15:05:33;21;19;
74333;PMS5003;62753;40.394;-80.022;2024-03-06T15:08:00;27;20;
74333;PMS5003;62753;40.394;-80.022;2024-03-06T15:10:24;21;17;
74333;PMS5003;62753;40.394;-80.022;2024-03-06T15:12:51;22;20;
74333;PMS5003;62753;40.394;-80.022;2024-03-06T15:15:15;24;18;
74333;PMS5003;62753;40.394;-80.022;2024-03-06T15:17:42;22;21;
74333;PMS5003;62753;40.394;-80.022;2024-03-06T15:20:07;27;23;
74333;PMS5003;62753;40.394;-80.022;2024-03-06T15:22:31;22;16;
74333;PMS5003;62753;40.394;-80.022;2024-03-06T15:24:56;21;19;
74333;PMS5003;62753;40.394;-80.022;2024-03-06T15:27:21;18;17;
74333;PMS5003;62753;40.394;-80.022;2024-03-06T15:29:47;22;20;
74333;PMS5003;62753;40.394;-80.022;2024-03-06T15:32:12;26;19;
74333;PMS5003;62753;40.394;-80.022;2024-03-06T15:34:37;19;18;
74333;PMS5003;62753;40.394;-80.022;2024-03-06T15:37:05;22;19;
74333;PMS5003;62753;40.394;-80.022;2024-03-06T15:39:28;18;16;
74333;PMS5003;62753;40.394;-80.022;2024-03-06T15:41:54;17;17;
74333;PMS5003;62753;40.394;-80.022;2024-03-06T15:44:21;19;18;
74333;PMS5003;62753;40.394;-80.022;2024-03-06T15:46:45;24;19;